Nearby METAR Reports

 

LFRV - Vannes-Meucon, FRANCE
Distance from station: NE 28km
Mise jour: 31/01/2023 07:00
Couvert
Couvert
 Wind from varies
Vent: varies 4 km/h
Temprature: 5°C
Point de rose: 3°C
Humidit: 87%
Baromtre: 1030 hPa
Clouds: Couvert
Visibility: 10 km
Cloud details: Couvert 792 m
2023/01/31 06:00 LFRV 310600Z AUTO VRB02KT 9999 OVC026 05/03 Q1030
LFRZ - Saint - Nazaire / Montoir, FRANCE
Distance from station: SE 64km
Mise jour: 31/01/2023 07:00
Couvert
Couvert
 Wind from NO
Vent: NO 6 km/h
Temprature: 7°C
Point de rose: 7°C
Humidit: 100%
Baromtre: 1031 hPa
Clouds: Couvert
Visibility: 10 km
Cloud details: Peu nuageux 488 m
Couvert 853 m
2023/01/31 06:00 LFRZ 310600Z AUTO 32003KT 9999 FEW016 OVC028 07/07 Q1031 TEMPO 4000 BR BKN004
 
LFRH - Lorient / Lann- Bihoué, FRANCE
Distance from station: NO 81km
Mise jour: 31/01/2023 07:00
Couvert
Couvert
 Wind from varies
Vent: varies 4 km/h
Temprature: 6°C
Point de rose: 4°C
Humidit: 87%
Baromtre: 1031 hPa
Clouds: Couvert
Visibility: 10 km
Cloud details: Couvert 1036 m
2023/01/31 06:00 LFRH 310600Z AUTO VRB02KT 9999 OVC034 06/04 Q1031 TEMPO 4000 BR
LFRB - Brest - Guipavas, FRANCE
Distance from station: NO 200km
Mise jour: 31/01/2023 07:00
nuageux
nuageux
 Wind from O
Vent: O 6 km/h
Temprature: 4°C
Point de rose: 2°C
Humidit: 87%
Baromtre: 1031 hPa
Clouds: nuageux
Visibility: 10 km
Cloud details: nuageux 762 m
nuageux 1128 m
2023/01/31 06:00 LFRB 310600Z AUTO 26003KT 9999 BKN025 BKN037 04/02 Q1031
 
LFPV - Villacoublay - Vélizy/, FRANCE
Distance from station: NE 450km
Mise jour: 31/01/2023 07:00
nuageux
nuageux
 Wind from O
Vent: O 11 km/h
Temprature: 0°C
Wind Chill: -4°C
Point de rose: -1°C
Humidit: 93%
Baromtre: 1029 hPa
Clouds: nuageux
Visibility: 8 km
Cloud details: nuageux 671 m
nuageux 3048 m
2023/01/31 06:00 LFPV 310600Z AUTO 28006KT 8000 BKN022 BKN100 M00/M01 Q1029 TEMPO 0500 FZFG VV///
LFRS - Nantes Atlantique, FRANCE
Distance from station: SE 106km
Mise jour: 31/01/2023 07:00
Couvert
Couvert
 Wind from varies
Vent: varies 4 km/h
Temprature: 6°C
Point de rose: 6°C
Humidit: 100%
Baromtre: 1030 hPa
Clouds: Couvert
Visibility: 10 km
Cloud details: Peu nuageux 671 m
Couvert 1036 m
2023/01/31 06:00 LFRS 310600Z AUTO VRB02KT 9999 FEW022 OVC034 06/06 Q1030 TEMPO 0500 FG VV///